createdAt,value
2023-03-26T00:01:33.916Z,9.10
2023-03-26T00:04:01.370Z,9.10
2023-03-26T00:06:36.683Z,9.10
2023-03-26T00:09:04.420Z,9.00
2023-03-26T00:11:34.082Z,8.90
2023-03-26T00:14:02.772Z,8.90
2023-03-26T00:16:31.637Z,8.80
2023-03-26T00:18:59.741Z,8.80
2023-03-26T00:21:28.994Z,8.80
2023-03-26T00:24:15.148Z,8.80
2023-03-26T00:26:42.759Z,8.80
2023-03-26T00:29:10.364Z,8.80
2023-03-26T00:31:41.112Z,8.80
2023-03-26T00:34:08.650Z,8.90
2023-03-26T00:36:36.653Z,8.90
2023-03-26T00:39:06.144Z,8.80
2023-03-26T00:41:37.162Z,8.80
2023-03-26T00:44:04.520Z,8.80
2023-03-26T00:46:32.191Z,8.80
2023-03-26T00:48:59.979Z,8.90
2023-03-26T00:51:28.630Z,8.80
2023-03-26T00:53:56.519Z,8.70
2023-03-26T00:56:24.066Z,8.70
2023-03-26T00:58:51.110Z,8.70
2023-03-26T01:01:27.489Z,8.60
2023-03-26T01:04:08.378Z,8.60
2023-03-26T01:06:41.423Z,8.60
2023-03-26T01:09:18.714Z,8.60
2023-03-26T01:11:46.434Z,8.50
2023-03-26T01:14:16.064Z,8.50
2023-03-26T01:16:53.099Z,8.40
2023-03-26T01:19:38.298Z,8.30
2023-03-26T01:22:09.684Z,8.30
2023-03-26T01:24:36.891Z,8.30
2023-03-26T01:27:14.132Z,8.40
2023-03-26T01:29:54.606Z,8.40
2023-03-26T01:32:45.984Z,8.40
2023-03-26T01:35:25.466Z,8.30
2023-03-26T01:38:23.249Z,8.20
2023-03-26T01:41:14.143Z,8.20
2023-03-26T01:44:08.706Z,8.00
2023-03-26T01:46:36.406Z,7.90
2023-03-26T01:49:06.785Z,7.70
2023-03-26T01:51:35.692Z,7.60
2023-03-26T01:54:06.313Z,7.40
2023-03-26T01:56:57.059Z,7.20
2023-03-26T02:00:11.347Z,7.10
2023-03-26T02:02:56.405Z,7.10
2023-03-26T02:05:53.536Z,7.00
2023-03-26T02:08:43.230Z,6.90
2023-03-26T02:11:13.411Z,6.90
2023-03-26T02:13:45.826Z,6.90
2023-03-26T02:16:18.805Z,6.80
2023-03-26T02:18:51.538Z,6.80
2023-03-26T02:21:21.505Z,6.80
2023-03-26T02:23:50.793Z,6.80
2023-03-26T02:26:20.292Z,6.80
2023-03-26T02:28:47.093Z,6.80
2023-03-26T02:31:16.182Z,6.70
2023-03-26T02:33:44.786Z,6.70
2023-03-26T02:36:14.123Z,6.60
2023-03-26T02:38:41.793Z,6.60
2023-03-26T02:41:08.677Z,6.60
2023-03-26T02:43:35.718Z,6.50
2023-03-26T02:46:02.953Z,6.50
2023-03-26T02:48:29.907Z,6.50
2023-03-26T02:50:56.919Z,6.50
2023-03-26T02:53:29.877Z,6.50
2023-03-26T02:55:58.645Z,6.60
2023-03-26T02:58:26.396Z,6.60
2023-03-26T03:00:57.078Z,6.60
2023-03-26T03:03:25.884Z,6.60
2023-03-26T03:05:55.011Z,6.70
2023-03-26T03:08:24.688Z,6.70
2023-03-26T03:11:27.106Z,6.70
2023-03-26T03:13:54.504Z,6.80
2023-03-26T03:16:21.339Z,6.90
2023-03-26T03:18:54.512Z,6.90
2023-03-26T03:21:22.576Z,6.90
2023-03-26T03:23:49.723Z,6.90
2023-03-26T03:26:21.776Z,7.00
2023-03-26T03:28:51.845Z,7.00
2023-03-26T03:31:18.931Z,7.00
2023-03-26T03:33:46.535Z,7.10
2023-03-26T03:36:22.103Z,7.10
2023-03-26T03:38:49.432Z,7.10
2023-03-26T03:41:18.597Z,7.20
2023-03-26T03:43:45.965Z,7.20
2023-03-26T03:46:12.913Z,7.20
2023-03-26T03:48:39.852Z,7.20
2023-03-26T03:51:06.725Z,7.20
2023-03-26T03:53:37.293Z,7.20
2023-03-26T03:56:10.225Z,7.20
2023-03-26T03:58:37.426Z,7.20
2023-03-26T04:01:04.708Z,7.20
2023-03-26T04:03:33.697Z,7.20
2023-03-26T04:06:01.718Z,7.20
2023-03-26T04:08:28.677Z,7.20
2023-03-26T04:10:55.683Z,7.20
2023-03-26T04:13:22.482Z,7.20
2023-03-26T04:15:49.422Z,7.20
2023-03-26T04:18:16.316Z,7.20
2023-03-26T04:20:47.443Z,7.10
2023-03-26T04:23:18.200Z,7.20
2023-03-26T04:25:49.533Z,7.20
2023-03-26T04:28:28.214Z,7.10
2023-03-26T04:30:57.283Z,7.10
2023-03-26T04:33:25.077Z,7.10
2023-03-26T04:35:52.209Z,7.20
2023-03-26T04:38:19.539Z,7.20
2023-03-26T04:40:47.547Z,7.10
2023-03-26T04:43:16.473Z,7.10
2023-03-26T04:45:43.786Z,7.10
2023-03-26T04:48:14.379Z,7.10
2023-03-26T04:50:45.986Z,7.10
2023-03-26T04:53:16.853Z,7.10
2023-03-26T04:55:56.955Z,7.10
2023-03-26T04:58:30.225Z,7.10
2023-03-26T05:00:57.667Z,7.10
2023-03-26T05:03:25.782Z,7.10
2023-03-26T05:05:53.077Z,7.10
2023-03-26T05:08:20.206Z,7.10
2023-03-26T05:10:47.003Z,7.00
2023-03-26T05:13:13.838Z,7.00
2023-03-26T05:15:40.786Z,7.00
2023-03-26T05:18:08.959Z,7.00
2023-03-26T05:20:36.003Z,7.00
2023-03-26T05:23:02.940Z,7.00
2023-03-26T05:25:30.316Z,7.00
2023-03-26T05:27:57.225Z,7.00
2023-03-26T05:30:24.130Z,7.00
2023-03-26T05:32:51.957Z,7.00
2023-03-26T05:35:19.326Z,7.00
2023-03-26T05:37:47.399Z,7.00
2023-03-26T05:40:16.944Z,7.10
2023-03-26T05:42:44.330Z,7.10
2023-03-26T05:45:12.974Z,7.20
2023-03-26T05:47:39.841Z,7.20
2023-03-26T05:50:08.323Z,7.20
2023-03-26T05:52:35.202Z,7.30
2023-03-26T05:55:02.300Z,7.30
2023-03-26T05:57:30.994Z,7.30
2023-03-26T05:59:57.977Z,7.30
2023-03-26T06:02:24.976Z,7.40
2023-03-26T06:04:52.749Z,7.40
2023-03-26T06:07:19.881Z,7.30
2023-03-26T06:09:46.857Z,7.30
2023-03-26T06:12:14.148Z,7.30
2023-03-26T06:14:42.886Z,7.30
2023-03-26T06:17:10.415Z,7.20
2023-03-26T06:19:37.595Z,7.20
2023-03-26T06:22:05.597Z,7.20
2023-03-26T06:24:32.757Z,7.20
2023-03-26T06:26:59.558Z,7.20
2023-03-26T06:29:27.080Z,7.20
2023-03-26T06:31:54.100Z,7.20
2023-03-26T06:34:21.172Z,7.20
2023-03-26T06:36:48.888Z,7.20
2023-03-26T06:39:16.156Z,7.30
2023-03-26T06:41:43.078Z,7.30
2023-03-26T06:44:11.374Z,7.30
2023-03-26T06:46:38.510Z,7.30
2023-03-26T06:49:05.596Z,7.30
2023-03-26T06:51:32.508Z,7.40
2023-03-26T06:53:59.370Z,7.50
2023-03-26T06:56:26.219Z,7.60
2023-03-26T06:58:52.976Z,7.60
2023-03-26T07:01:19.943Z,7.70
2023-03-26T07:03:46.821Z,7.70
2023-03-26T07:06:13.647Z,7.70
2023-03-26T07:08:40.505Z,7.70
2023-03-26T07:11:07.575Z,7.70
2023-03-26T07:13:34.469Z,7.70
2023-03-26T07:16:01.318Z,7.80
2023-03-26T07:18:28.265Z,7.80
2023-03-26T07:20:55.661Z,7.80
2023-03-26T07:23:22.744Z,7.70
2023-03-26T07:25:51.851Z,7.70
2023-03-26T07:28:40.512Z,7.60
2023-03-26T07:31:16.213Z,7.60
2023-03-26T07:34:08.152Z,7.60
2023-03-26T07:37:03.635Z,7.60
2023-03-26T07:39:48.862Z,7.60
2023-03-26T07:42:24.785Z,7.60
2023-03-26T07:45:21.310Z,7.50
2023-03-26T07:47:49.622Z,7.40
2023-03-26T07:50:19.787Z,7.40
2023-03-26T07:52:46.766Z,7.40
2023-03-26T07:55:15.636Z,7.40
2023-03-26T07:58:16.292Z,7.40
2023-03-26T08:00:52.522Z,7.30
2023-03-26T08:03:49.374Z,7.30
2023-03-26T08:06:31.605Z,7.30
2023-03-26T08:09:20.623Z,7.30
2023-03-26T08:12:06.703Z,7.20
2023-03-26T08:14:53.477Z,7.20
2023-03-26T08:17:44.998Z,7.20
2023-03-26T08:20:36.593Z,7.20
2023-03-26T08:23:13.423Z,7.20
2023-03-26T08:25:49.159Z,7.20
2023-03-26T08:28:27.895Z,7.10
2023-03-26T08:30:55.224Z,7.00
2023-03-26T08:33:26.016Z,7.00
2023-03-26T08:35:52.969Z,7.00
2023-03-26T08:38:21.146Z,7.00
2023-03-26T08:41:12.744Z,6.90
2023-03-26T08:43:58.001Z,6.90
2023-03-26T08:46:37.105Z,6.90
2023-03-26T08:49:36.666Z,6.90
2023-03-26T08:52:17.204Z,6.90
2023-03-26T08:55:08.379Z,6.90
2023-03-26T08:58:09.649Z,6.90
2023-03-26T09:00:58.416Z,7.00
2023-03-26T09:03:39.218Z,7.00
2023-03-26T09:06:43.148Z,7.00
2023-03-26T09:09:52.327Z,7.00
2023-03-26T09:12:47.503Z,7.00
2023-03-26T09:15:51.957Z,6.90
2023-03-26T09:18:37.829Z,6.80
2023-03-26T09:21:17.140Z,6.70
2023-03-26T09:24:11.043Z,6.70
2023-03-26T09:27:15.564Z,6.70
2023-03-26T09:30:11.636Z,6.60
2023-03-26T09:32:47.194Z,6.60
2023-03-26T09:35:14.201Z,6.70
2023-03-26T09:37:56.367Z,6.70
2023-03-26T09:40:29.516Z,6.80
2023-03-26T09:43:29.207Z,6.80
2023-03-26T09:46:29.116Z,6.90
2023-03-26T09:49:17.402Z,7.10
2023-03-26T09:52:10.117Z,7.20
2023-03-26T09:54:57.247Z,7.20
2023-03-26T09:57:53.533Z,7.10
2023-03-26T10:00:50.807Z,7.00
2023-03-26T10:03:29.547Z,7.10
2023-03-26T10:06:08.443Z,7.30
2023-03-26T10:09:00.537Z,7.40
2023-03-26T10:11:43.513Z,7.80
2023-03-26T10:14:34.794Z,8.00
2023-03-26T10:17:28.513Z,7.90
2023-03-26T10:20:19.311Z,7.80
2023-03-26T10:23:16.018Z,7.80
2023-03-26T10:26:11.167Z,7.80
2023-03-26T10:28:56.831Z,7.80
2023-03-26T10:31:51.443Z,7.90
2023-03-26T10:35:03.466Z,7.90
2023-03-26T10:37:42.198Z,8.00
2023-03-26T10:40:46.628Z,8.00
2023-03-26T10:43:31.624Z,8.10
2023-03-26T10:46:36.048Z,8.10
2023-03-26T10:49:27.530Z,8.10
2023-03-26T10:52:00.991Z,8.10
2023-03-26T10:55:03.488Z,8.20
2023-03-26T10:57:36.036Z,8.10
2023-03-26T11:00:14.564Z,8.10
2023-03-26T11:02:53.508Z,8.10
2023-03-26T11:05:29.545Z,8.10
2023-03-26T11:08:31.624Z,8.30
2023-03-26T11:11:23.153Z,8.40
2023-03-26T11:14:00.794Z,8.40
2023-03-26T11:16:58.983Z,8.30
2023-03-26T11:19:31.454Z,8.30
2023-03-26T11:22:23.334Z,8.30
2023-03-26T11:25:19.655Z,8.20
2023-03-26T11:28:09.627Z,8.20
2023-03-26T11:30:52.655Z,8.30
2023-03-26T11:33:26.291Z,8.40
2023-03-26T11:36:06.750Z,8.40
2023-03-26T11:38:41.956Z,8.50
2023-03-26T11:41:24.152Z,8.50
2023-03-26T11:44:10.572Z,8.60
2023-03-26T11:46:43.613Z,8.70
2023-03-26T11:49:13.229Z,8.60
2023-03-26T11:51:41.413Z,8.60
2023-03-26T11:54:11.596Z,8.60
2023-03-26T11:57:05.387Z,8.60
2023-03-26T11:59:53.098Z,8.60
2023-03-26T12:02:29.212Z,8.60
2023-03-26T12:05:16.092Z,8.60
2023-03-26T12:08:18.058Z,8.50
2023-03-26T12:10:49.859Z,8.40
2023-03-26T12:13:33.668Z,8.40
2023-03-26T12:16:16.006Z,8.40
2023-03-26T12:18:44.756Z,8.50
2023-03-26T12:21:17.918Z,8.40
2023-03-26T12:24:02.509Z,8.40
2023-03-26T12:26:42.812Z,8.40
2023-03-26T12:29:15.769Z,8.30
2023-03-26T12:31:49.512Z,8.30
2023-03-26T12:34:19.118Z,8.30
2023-03-26T12:36:53.200Z,8.40
2023-03-26T12:40:09.016Z,8.40
2023-03-26T12:44:46.551Z,8.40
2023-03-26T12:45:22.624Z,8.40
2023-03-26T12:47:58.452Z,8.30
2023-03-26T12:50:57.222Z,8.10
2023-03-26T12:53:33.550Z,8.00
2023-03-26T12:56:08.140Z,7.90
2023-03-26T12:58:51.217Z,7.80
2023-03-26T13:01:51.934Z,7.70
2023-03-26T13:04:24.664Z,7.70
2023-03-26T13:07:04.546Z,7.60
2023-03-26T13:09:56.173Z,7.60
2023-03-26T13:12:41.134Z,7.60
2023-03-26T13:15:36.609Z,7.50
2023-03-26T13:18:27.275Z,7.50
2023-03-26T13:21:08.385Z,7.60
2023-03-26T13:23:51.347Z,7.60
2023-03-26T13:26:46.449Z,7.70
2023-03-26T13:29:41.539Z,7.80
2023-03-26T13:32:11.510Z,7.80
2023-03-26T13:35:14.098Z,7.80
2023-03-26T13:37:49.238Z,7.90
2023-03-26T13:40:22.253Z,7.90
2023-03-26T13:42:58.084Z,7.90
2023-03-26T13:45:37.169Z,8.00
2023-03-26T13:48:09.179Z,8.10
2023-03-26T13:50:41.322Z,8.20
2023-03-26T13:53:17.565Z,8.30
2023-03-26T13:55:53.445Z,8.50
2023-03-26T13:58:41.794Z,8.50
2023-03-26T14:01:11.184Z,8.50
2023-03-26T14:04:17.978Z,8.50
2023-03-26T14:07:24.794Z,8.50
2023-03-26T14:10:14.160Z,8.30
2023-03-26T14:12:52.445Z,8.30
2023-03-26T14:15:25.036Z,8.30
2023-03-26T14:18:14.813Z,8.30
2023-03-26T14:21:02.933Z,8.30
2023-03-26T14:23:32.643Z,8.30
2023-03-26T14:26:13.974Z,8.30
2023-03-26T14:28:55.726Z,8.20
2023-03-26T14:31:39.015Z,8.30
2023-03-26T14:34:30.527Z,8.30
2023-03-26T14:37:06.161Z,8.30
2023-03-26T14:40:14.722Z,8.40
2023-03-26T14:43:01.361Z,8.50
2023-03-26T14:45:54.275Z,8.50
2023-03-26T14:48:58.219Z,8.60
2023-03-26T14:51:54.016Z,8.50
2023-03-26T14:54:26.091Z,8.50
2023-03-26T14:57:21.975Z,8.60
2023-03-26T15:00:07.250Z,8.50
2023-03-26T15:03:26.050Z,8.50
2023-03-26T15:06:27.002Z,8.60
2023-03-26T15:08:58.371Z,8.70
2023-03-26T15:11:34.045Z,8.80
2023-03-26T15:14:14.404Z,8.80
2023-03-26T15:16:47.242Z,8.90
2023-03-26T15:19:36.649Z,9.20
2023-03-26T15:22:26.096Z,9.20
2023-03-26T15:25:11.250Z,9.20
2023-03-26T15:27:57.401Z,9.10
2023-03-26T15:31:06.557Z,9.10
2023-03-26T15:33:59.450Z,9.00
2023-03-26T15:37:05.262Z,8.90
2023-03-26T15:39:59.055Z,8.90
2023-03-26T15:42:32.672Z,9.00
2023-03-26T15:45:22.567Z,9.00
2023-03-26T15:48:11.632Z,9.00
2023-03-26T15:50:54.722Z,8.90
2023-03-26T15:53:55.494Z,8.80
2023-03-26T15:56:52.994Z,8.70
2023-03-26T15:59:28.974Z,8.60
2023-03-26T16:02:29.707Z,8.60
2023-03-26T16:05:17.929Z,8.70
2023-03-26T16:08:09.254Z,8.60
2023-03-26T16:10:58.975Z,8.60
2023-03-26T16:13:39.772Z,8.60
2023-03-26T16:16:16.154Z,8.50
2023-03-26T16:19:08.406Z,8.50
2023-03-26T16:21:42.317Z,8.30
2023-03-26T16:24:13.491Z,8.30
2023-03-26T16:26:46.506Z,8.30
2023-03-26T16:29:25.879Z,8.20
2023-03-26T16:32:26.078Z,8.30
2023-03-26T16:35:05.274Z,8.20
2023-03-26T16:37:42.915Z,8.10
2023-03-26T16:40:22.296Z,8.00
2023-03-26T16:43:21.393Z,7.90
2023-03-26T16:46:32.059Z,7.80
2023-03-26T16:49:08.055Z,7.70
2023-03-26T16:52:02.379Z,7.70
2023-03-26T16:54:47.752Z,7.60
2023-03-26T16:57:38.500Z,7.60
2023-03-26T17:00:29.231Z,7.60
2023-03-26T17:02:56.906Z,7.60
2023-03-26T17:05:49.010Z,7.60
2023-03-26T17:08:42.023Z,7.50
2023-03-26T17:11:25.261Z,7.50
2023-03-26T17:14:28.443Z,7.50
2023-03-26T17:17:10.707Z,7.40
2023-03-26T17:20:18.948Z,7.30
2023-03-26T17:22:52.184Z,7.30
2023-03-26T17:25:27.800Z,7.20
2023-03-26T17:28:18.570Z,7.10
2023-03-26T17:31:10.739Z,7.00
2023-03-26T17:33:41.993Z,7.00
2023-03-26T17:36:11.940Z,7.00
2023-03-26T17:38:48.186Z,7.00
2023-03-26T17:41:49.588Z,6.90
2023-03-26T17:44:42.431Z,6.90
2023-03-26T17:47:39.759Z,6.90
2023-03-26T17:50:42.088Z,6.90
2023-03-26T17:53:31.155Z,7.00
2023-03-26T17:56:03.788Z,7.00
2023-03-26T17:58:47.980Z,7.00
2023-03-26T18:01:17.913Z,7.00
2023-03-26T18:03:57.975Z,7.00
2023-03-26T18:06:56.223Z,6.90
2023-03-26T18:09:58.698Z,6.90
2023-03-26T18:12:57.570Z,6.90
2023-03-26T18:15:30.428Z,6.90
2023-03-26T18:18:23.296Z,6.90
2023-03-26T18:20:51.534Z,6.80
2023-03-26T18:23:35.320Z,6.80
2023-03-26T18:26:16.993Z,6.80
2023-03-26T18:28:49.266Z,6.80
2023-03-26T18:31:26.131Z,6.70
2023-03-26T18:33:59.004Z,6.70
2023-03-26T18:36:30.528Z,6.60
2023-03-26T18:39:04.295Z,6.60
2023-03-26T18:41:33.091Z,6.60
2023-03-26T18:44:05.943Z,6.60
2023-03-26T18:46:34.164Z,6.60
2023-03-26T18:49:02.849Z,6.50
2023-03-26T18:51:32.055Z,6.50
2023-03-26T18:54:03.078Z,6.50
2023-03-26T18:56:41.732Z,6.50
2023-03-26T18:59:28.346Z,6.50
2023-03-26T19:01:57.727Z,6.40
2023-03-26T19:04:31.011Z,6.40
2023-03-26T19:06:58.392Z,6.40
2023-03-26T19:09:32.233Z,6.40
2023-03-26T19:12:06.774Z,6.40
2023-03-26T19:14:37.083Z,6.40
2023-03-26T19:17:06.989Z,6.40
2023-03-26T19:19:37.369Z,6.40
2023-03-26T19:22:06.418Z,6.40
2023-03-26T19:24:33.893Z,6.40
2023-03-26T19:27:01.271Z,6.40
2023-03-26T19:29:32.631Z,6.40
2023-03-26T19:32:27.027Z,6.40
2023-03-26T19:34:54.341Z,6.40
2023-03-26T19:37:30.087Z,6.40
2023-03-26T19:40:25.223Z,6.40
2023-03-26T19:42:58.087Z,6.40
2023-03-26T19:45:26.381Z,6.40
2023-03-26T19:48:03.944Z,6.30
2023-03-26T19:51:04.825Z,6.30
2023-03-26T19:53:35.444Z,6.30
2023-03-26T19:56:15.110Z,6.30
2023-03-26T19:58:42.880Z,6.20
2023-03-26T20:01:30.417Z,6.20
2023-03-26T20:04:01.128Z,6.10
2023-03-26T20:06:41.712Z,6.00
2023-03-26T20:09:12.292Z,6.00
2023-03-26T20:11:39.870Z,6.00
2023-03-26T20:14:18.065Z,6.00
2023-03-26T20:16:46.021Z,6.00
2023-03-26T20:19:14.883Z,6.00
2023-03-26T20:21:42.959Z,6.00
2023-03-26T20:24:15.960Z,6.00
2023-03-26T20:26:43.692Z,6.00
2023-03-26T20:29:11.770Z,6.00
2023-03-26T20:31:41.715Z,5.90
2023-03-26T20:34:20.462Z,5.90
2023-03-26T20:36:47.746Z,5.90
2023-03-26T20:39:14.766Z,5.90
2023-03-26T20:41:47.223Z,5.80
2023-03-26T20:44:16.733Z,5.80
2023-03-26T20:46:44.483Z,5.70
2023-03-26T20:49:12.506Z,5.70
2023-03-26T20:51:41.913Z,5.60
2023-03-26T20:54:23.895Z,5.60
2023-03-26T20:56:52.481Z,5.50
2023-03-26T20:59:22.677Z,5.50
2023-03-26T21:01:51.340Z,5.50
2023-03-26T21:04:19.271Z,5.50
2023-03-26T21:06:46.426Z,5.50
2023-03-26T21:09:15.970Z,5.40
2023-03-26T21:12:08.318Z,5.40
2023-03-26T21:14:41.890Z,5.40
2023-03-26T21:17:20.682Z,5.40
2023-03-26T21:19:54.850Z,5.40
2023-03-26T21:22:35.840Z,5.30
2023-03-26T21:25:17.891Z,5.30
2023-03-26T21:27:47.755Z,5.30
2023-03-26T21:30:17.739Z,5.30
2023-03-26T21:32:48.339Z,5.20
2023-03-26T21:35:16.485Z,5.20
2023-03-26T21:37:46.362Z,5.20
2023-03-26T21:40:14.911Z,5.20
2023-03-26T21:42:43.372Z,5.10
2023-03-26T21:45:18.354Z,5.10
2023-03-26T21:47:46.762Z,5.10
2023-03-26T21:50:18.908Z,5.00
2023-03-26T21:52:48.876Z,5.10
2023-03-26T21:55:29.479Z,5.00
2023-03-26T21:58:05.228Z,5.00
2023-03-26T22:00:55.808Z,4.90
2023-03-26T22:03:57.351Z,4.90
2023-03-26T22:06:31.585Z,4.90
2023-03-26T22:08:59.661Z,4.90
2023-03-26T22:11:26.925Z,4.90
2023-03-26T22:13:55.752Z,4.80
2023-03-26T22:16:25.477Z,4.90
2023-03-26T22:18:53.829Z,4.90
2023-03-26T22:21:20.912Z,4.80
2023-03-26T22:23:52.828Z,4.80
2023-03-26T22:26:24.366Z,4.80
2023-03-26T22:28:51.919Z,4.80
2023-03-26T22:31:19.260Z,4.80
2023-03-26T22:33:46.452Z,4.80
2023-03-26T22:36:23.286Z,4.80
2023-03-26T22:38:55.222Z,4.80
2023-03-26T22:41:22.868Z,4.70
2023-03-26T22:43:52.175Z,4.70
2023-03-26T22:46:19.798Z,4.60
2023-03-26T22:48:48.322Z,4.60
2023-03-26T22:51:16.232Z,4.60
2023-03-26T22:53:44.017Z,4.50
2023-03-26T22:56:13.660Z,4.50
2023-03-26T22:58:41.383Z,4.40
2023-03-26T23:01:13.183Z,4.40
2023-03-26T23:03:40.667Z,4.30
2023-03-26T23:06:09.825Z,4.30
2023-03-26T23:08:38.279Z,4.20
2023-03-26T23:11:23.585Z,4.20
2023-03-26T23:13:50.519Z,4.10
2023-03-26T23:16:18.183Z,4.00
2023-03-26T23:18:45.310Z,3.90
2023-03-26T23:21:18.473Z,3.80
2023-03-26T23:23:46.201Z,3.70
2023-03-26T23:26:14.596Z,3.60
2023-03-26T23:28:41.439Z,3.50
2023-03-26T23:31:12.281Z,3.40
2023-03-26T23:33:45.931Z,3.40
2023-03-26T23:36:17.687Z,3.40
2023-03-26T23:38:49.241Z,3.30
2023-03-26T23:41:19.345Z,3.30
2023-03-26T23:43:53.971Z,3.30
2023-03-26T23:46:30.494Z,3.30
2023-03-26T23:49:00.028Z,3.20
2023-03-26T23:51:27.192Z,3.20
2023-03-26T23:53:54.436Z,3.20
2023-03-26T23:56:21.663Z,3.10
2023-03-26T23:58:49.050Z,3.10
